Amboy, California
Current Conditions -  °F | °C
As of 4:56 PM on Friday 19 Dec 2014 (Local Time) from KNXP Reporting Station
Clear Clear  
Wind Chill: 53°   Ceiling: Unl
Heat Index: 53°   Visibility: 10mi
Dew Point: 36°   Wind: 8mph
Humidity: 52%   Direction: 190°S
Pressure: 30.22"   Gusts: NA
Location:  34.56°N, 115.75°W
Report Text: KNXP 200056Z 19007KT 10SM CLR 12/02 A3022 RMK AO2 SLP220 T01170022 $
Loading
Personal Weather Stations






























Interactive Weather Map New forecast layout! Learn more

10-Day Weather Forecast

Advertisements
Track Severe Weather on mobile